createdAt,value
2023-02-09T00:01:18.044Z,48.44
2023-02-09T00:03:46.092Z,48.40
2023-02-09T00:06:17.023Z,48.31
2023-02-09T00:08:45.425Z,48.07
2023-02-09T00:11:16.517Z,48.26
2023-02-09T00:13:43.642Z,48.41
2023-02-09T00:16:11.732Z,48.17
2023-02-09T00:18:39.571Z,48.33
2023-02-09T00:21:10.691Z,47.89
2023-02-09T00:23:42.193Z,47.92
2023-02-09T00:26:12.051Z,48.04
2023-02-09T00:28:39.798Z,47.49
2023-02-09T00:31:08.526Z,48.35
2023-02-09T00:33:37.085Z,48.16
2023-02-09T00:36:06.805Z,47.69
2023-02-09T00:38:35.688Z,47.78
2023-02-09T00:41:05.017Z,47.34
2023-02-09T00:43:33.019Z,47.47
2023-02-09T00:46:01.073Z,47.73
2023-02-09T00:48:29.449Z,47.69
2023-02-09T00:50:57.247Z,47.34
2023-02-09T00:53:25.185Z,47.12
2023-02-09T00:55:52.934Z,47.20
2023-02-09T00:58:22.173Z,47.56
2023-02-09T01:00:50.043Z,47.68
2023-02-09T01:03:17.860Z,47.37
2023-02-09T01:05:45.676Z,47.19
2023-02-09T01:08:13.403Z,47.62
2023-02-09T01:10:41.188Z,47.64
2023-02-09T01:13:08.912Z,47.77
2023-02-09T01:15:40.244Z,47.62
2023-02-09T01:18:08.433Z,47.31
2023-02-09T01:20:36.493Z,47.86
2023-02-09T01:23:04.293Z,47.83
2023-02-09T01:25:32.114Z,47.97
2023-02-09T01:27:59.928Z,47.63
2023-02-09T01:30:28.293Z,47.84
2023-02-09T01:32:57.451Z,47.68
2023-02-09T01:35:25.120Z,47.55
2023-02-09T01:37:52.846Z,47.47
2023-02-09T01:40:20.616Z,47.54
2023-02-09T01:42:48.329Z,48.04
2023-02-09T01:45:22.202Z,47.60
2023-02-09T01:47:55.446Z,47.80
2023-02-09T01:50:26.027Z,47.72
2023-02-09T01:52:54.302Z,47.58
2023-02-09T01:55:25.998Z,47.10
2023-02-09T01:57:57.384Z,47.23
2023-02-09T02:00:27.044Z,47.04
2023-02-09T02:02:58.567Z,47.58
2023-02-09T02:05:29.231Z,47.57
2023-02-09T02:08:02.319Z,47.55
2023-02-09T02:10:30.566Z,47.13
2023-02-09T02:12:58.930Z,47.35
2023-02-09T02:15:30.230Z,47.20
2023-02-09T02:18:18.888Z,47.36
2023-02-09T02:21:19.273Z,47.04
2023-02-09T02:24:03.395Z,47.26
2023-02-09T02:26:53.005Z,47.36
2023-02-09T02:30:13.338Z,47.46
2023-02-09T02:33:01.313Z,47.45
2023-02-09T02:35:35.444Z,47.25
2023-02-09T02:38:16.249Z,47.16
2023-02-09T02:40:54.220Z,46.79
2023-02-09T02:43:35.068Z,47.00
2023-02-09T02:46:06.653Z,47.59
2023-02-09T02:48:41.965Z,47.26
2023-02-09T02:51:15.837Z,47.33
2023-02-09T02:53:48.793Z,46.93
2023-02-09T02:56:20.002Z,46.83
2023-02-09T02:58:50.228Z,47.10
2023-02-09T03:01:23.094Z,47.31
2023-02-09T03:03:54.628Z,47.08
2023-02-09T03:06:22.396Z,47.70
2023-02-09T03:08:52.620Z,46.80
2023-02-09T03:11:21.884Z,47.15
2023-02-09T03:14:10.648Z,47.56
2023-02-09T03:16:44.449Z,47.04
2023-02-09T03:19:31.478Z,47.15
2023-02-09T03:22:04.562Z,47.50
2023-02-09T03:24:37.970Z,47.26
2023-02-09T03:27:14.757Z,47.21
2023-02-09T03:29:45.849Z,47.25
2023-02-09T03:32:14.511Z,47.03
2023-02-09T03:34:43.902Z,47.26
2023-02-09T03:37:11.750Z,47.33
2023-02-09T03:39:39.672Z,47.03
2023-02-09T03:42:08.048Z,46.97
2023-02-09T03:44:35.799Z,46.72
2023-02-09T03:47:05.510Z,46.68
2023-02-09T03:49:35.518Z,47.48
2023-02-09T03:52:04.986Z,47.31
2023-02-09T03:54:33.692Z,47.08
2023-02-09T03:57:01.984Z,46.78
2023-02-09T03:59:30.302Z,46.53
2023-02-09T04:02:00.111Z,47.28
2023-02-09T04:04:28.060Z,47.55
2023-02-09T04:06:56.158Z,46.83
2023-02-09T04:09:26.003Z,47.39
2023-02-09T04:11:54.001Z,47.32
2023-02-09T04:14:21.837Z,47.78
2023-02-09T04:16:49.602Z,48.00
2023-02-09T04:19:17.399Z,47.34
2023-02-09T04:21:45.108Z,47.34
2023-02-09T04:24:13.149Z,47.05
2023-02-09T04:26:42.262Z,47.13
2023-02-09T04:29:10.029Z,47.22
2023-02-09T04:31:37.884Z,48.03
2023-02-09T04:34:05.648Z,48.10
2023-02-09T04:36:33.325Z,47.46
2023-02-09T04:39:01.032Z,47.74
2023-02-09T04:41:28.772Z,48.17
2023-02-09T04:43:57.843Z,47.94
2023-02-09T04:46:25.602Z,48.06
2023-02-09T04:48:53.325Z,47.54
2023-02-09T04:51:21.105Z,47.44
2023-02-09T04:53:48.865Z,47.95
2023-02-09T04:56:17.806Z,48.13
2023-02-09T04:59:03.719Z,47.37
2023-02-09T05:01:33.793Z,47.50
2023-02-09T05:04:01.549Z,47.43
2023-02-09T05:06:29.420Z,48.02
2023-02-09T05:08:57.130Z,48.04
2023-02-09T05:11:25.719Z,47.42
2023-02-09T05:13:53.696Z,46.93
2023-02-09T05:16:21.432Z,47.32
2023-02-09T05:18:51.131Z,47.75
2023-02-09T05:21:18.918Z,47.97
2023-02-09T05:23:46.671Z,48.06
2023-02-09T05:26:14.426Z,47.50
2023-02-09T05:28:42.139Z,47.51
2023-02-09T05:31:09.951Z,47.47
2023-02-09T05:33:37.706Z,47.22
2023-02-09T05:36:09.518Z,47.24
2023-02-09T05:38:37.732Z,47.57
2023-02-09T05:41:06.639Z,47.59
2023-02-09T05:43:34.504Z,47.28
2023-02-09T05:46:02.404Z,47.45
2023-02-09T05:48:30.484Z,47.58
2023-02-09T05:50:58.205Z,47.16
2023-02-09T05:53:27.276Z,46.96
2023-02-09T05:55:56.123Z,46.66
2023-02-09T05:58:23.909Z,47.35
2023-02-09T06:00:51.622Z,47.51
2023-02-09T06:03:19.360Z,47.13
2023-02-09T06:05:47.175Z,46.83
2023-02-09T06:08:14.936Z,47.00
2023-02-09T06:10:44.517Z,46.67
2023-02-09T06:13:12.426Z,46.47
2023-02-09T06:15:40.157Z,46.29
2023-02-09T06:18:07.944Z,45.84
2023-02-09T06:20:35.639Z,45.34
2023-02-09T06:23:03.354Z,45.34
2023-02-09T06:25:31.513Z,44.95
2023-02-09T06:28:00.593Z,44.78
2023-02-09T06:30:28.311Z,44.84
2023-02-09T06:32:56.004Z,45.39
2023-02-09T06:35:23.764Z,46.56
2023-02-09T06:37:51.430Z,46.74
2023-02-09T06:40:20.040Z,46.64
2023-02-09T06:42:47.768Z,45.10
2023-02-09T06:45:18.411Z,45.00
2023-02-09T06:47:47.106Z,45.84
2023-02-09T06:50:16.984Z,46.02
2023-02-09T06:52:45.251Z,45.68
2023-02-09T06:55:13.219Z,46.24
2023-02-09T06:57:41.421Z,46.04
2023-02-09T07:00:11.183Z,46.78
2023-02-09T07:02:42.756Z,46.29
2023-02-09T07:05:10.763Z,46.87
2023-02-09T07:07:39.006Z,46.72
2023-02-09T07:10:08.855Z,47.13
2023-02-09T07:12:37.614Z,46.67
2023-02-09T07:15:06.566Z,46.84
2023-02-09T07:17:34.842Z,47.42
2023-02-09T07:20:04.276Z,47.63
2023-02-09T07:22:32.055Z,46.86
2023-02-09T07:24:59.730Z,47.48
2023-02-09T07:27:27.644Z,46.89
2023-02-09T07:29:55.346Z,46.81
2023-02-09T07:32:23.971Z,46.79
2023-02-09T07:34:51.738Z,47.39
2023-02-09T07:37:20.952Z,47.56
2023-02-09T07:39:48.776Z,47.40
2023-02-09T07:42:16.557Z,46.93
2023-02-09T07:44:44.234Z,47.08
2023-02-09T07:47:12.022Z,46.71
2023-02-09T07:49:39.726Z,46.47
2023-02-09T07:52:07.434Z,46.49
2023-02-09T07:54:36.516Z,46.43
2023-02-09T07:57:04.472Z,46.57
2023-02-09T07:59:32.180Z,47.37
2023-02-09T08:01:59.982Z,46.66
2023-02-09T08:04:27.830Z,47.21
2023-02-09T08:06:56.328Z,46.92
2023-02-09T08:09:24.125Z,47.70
2023-02-09T08:11:57.097Z,47.58
2023-02-09T08:14:28.866Z,47.88
2023-02-09T08:17:13.526Z,47.93
2023-02-09T08:19:41.840Z,47.35
2023-02-09T08:22:09.724Z,48.57
2023-02-09T08:24:37.657Z,48.21
2023-02-09T08:27:06.761Z,48.75
2023-02-09T08:29:34.621Z,48.37
2023-02-09T08:32:02.490Z,48.16
2023-02-09T08:34:30.289Z,49.06
2023-02-09T08:36:57.964Z,49.12
2023-02-09T08:39:25.851Z,48.63
2023-02-09T08:41:53.545Z,48.90
2023-02-09T08:44:22.639Z,49.52
2023-02-09T08:46:50.649Z,49.29
2023-02-09T08:49:18.444Z,49.51
2023-02-09T08:51:46.167Z,48.63
2023-02-09T08:54:13.917Z,49.52
2023-02-09T08:56:42.803Z,49.59
2023-02-09T08:59:10.563Z,49.21
2023-02-09T09:01:40.516Z,49.10
2023-02-09T09:04:08.802Z,49.12
2023-02-09T09:06:36.985Z,49.15
2023-02-09T09:09:04.979Z,48.26
2023-02-09T09:11:32.801Z,48.17
2023-02-09T09:14:00.602Z,47.42
2023-02-09T09:16:28.382Z,47.34
2023-02-09T09:18:57.546Z,46.74
2023-02-09T09:21:25.320Z,46.91
2023-02-09T09:23:53.078Z,46.00
2023-02-09T09:26:21.324Z,45.90
2023-02-09T09:28:51.064Z,45.48
2023-02-09T09:31:19.994Z,45.33
2023-02-09T09:33:48.024Z,45.21
2023-02-09T09:36:17.152Z,45.00
2023-02-09T09:38:44.936Z,44.77
2023-02-09T09:41:22.117Z,44.95
2023-02-09T09:43:50.271Z,44.65
2023-02-09T09:46:21.110Z,44.80
2023-02-09T09:48:52.569Z,45.10
2023-02-09T09:51:29.830Z,44.72
2023-02-09T09:54:00.469Z,45.02
2023-02-09T09:56:31.072Z,45.05
2023-02-09T09:59:00.847Z,45.15
2023-02-09T10:01:31.429Z,44.44
2023-02-09T10:04:01.938Z,45.18
2023-02-09T10:06:33.777Z,44.77
2023-02-09T10:09:05.227Z,44.66
2023-02-09T10:11:38.290Z,44.83
2023-02-09T10:14:06.082Z,44.75
2023-02-09T10:16:38.173Z,44.82
2023-02-09T10:19:17.452Z,44.49
2023-02-09T10:21:46.652Z,44.69
2023-02-09T10:24:17.096Z,44.87
2023-02-09T10:26:44.837Z,45.32
2023-02-09T10:29:26.613Z,45.34
2023-02-09T10:32:05.123Z,46.03
2023-02-09T10:34:41.989Z,46.65
2023-02-09T10:37:21.574Z,47.17
2023-02-09T10:39:57.438Z,47.50
2023-02-09T10:42:30.182Z,48.07
2023-02-09T10:45:05.593Z,48.06
2023-02-09T10:47:33.496Z,48.13
2023-02-09T10:50:06.645Z,48.53
2023-02-09T10:52:37.331Z,48.73
2023-02-09T10:55:08.106Z,49.37
2023-02-09T10:57:37.830Z,48.94
2023-02-09T11:00:26.642Z,49.24
2023-02-09T11:02:57.668Z,48.84
2023-02-09T11:05:29.854Z,49.13
2023-02-09T11:08:04.191Z,49.32
2023-02-09T11:10:37.879Z,48.76
2023-02-09T11:13:17.610Z,49.62
2023-02-09T11:15:55.518Z,49.24
2023-02-09T11:18:27.561Z,49.35
2023-02-09T11:21:00.579Z,49.52
2023-02-09T11:23:44.494Z,49.89
2023-02-09T11:26:22.730Z,48.88
2023-02-09T11:29:00.335Z,49.58
2023-02-09T11:31:47.837Z,49.14
2023-02-09T11:34:33.022Z,49.22
2023-02-09T11:37:11.147Z,49.46
2023-02-09T11:39:45.435Z,49.35
2023-02-09T11:42:36.565Z,50.14
2023-02-09T11:45:09.396Z,49.49
2023-02-09T11:47:49.711Z,49.70
2023-02-09T11:50:26.005Z,49.90
2023-02-09T11:52:57.244Z,49.71
2023-02-09T11:55:30.386Z,49.85
2023-02-09T11:58:09.793Z,49.46
2023-02-09T12:00:55.921Z,49.56
2023-02-09T12:03:25.538Z,49.21
2023-02-09T12:05:53.850Z,48.94
2023-02-09T12:08:49.970Z,48.51
2023-02-09T12:11:31.763Z,48.17
2023-02-09T12:14:12.360Z,47.64
2023-02-09T12:16:45.323Z,47.60
2023-02-09T12:19:29.263Z,47.27
2023-02-09T12:21:56.967Z,47.63
2023-02-09T12:24:34.144Z,48.33
2023-02-09T12:27:03.364Z,47.83
2023-02-09T12:29:43.432Z,48.88
2023-02-09T12:32:27.259Z,49.57
2023-02-09T12:34:56.660Z,49.60
2023-02-09T12:37:27.843Z,50.08
2023-02-09T12:40:23.749Z,50.12
2023-02-09T12:43:26.292Z,50.43
2023-02-09T12:46:26.621Z,50.95
2023-02-09T12:49:07.588Z,50.87
2023-02-09T12:51:56.057Z,51.02
2023-02-09T12:54:41.471Z,51.00
2023-02-09T12:57:49.645Z,50.75
2023-02-09T13:00:40.999Z,50.94
2023-02-09T13:03:14.079Z,50.79
2023-02-09T13:05:45.832Z,50.17
2023-02-09T13:08:21.860Z,49.81
2023-02-09T13:10:56.424Z,49.52
2023-02-09T13:13:34.089Z,49.01
2023-02-09T13:16:28.031Z,48.48
2023-02-09T13:19:01.869Z,48.73
2023-02-09T13:21:38.892Z,48.00
2023-02-09T13:24:09.864Z,48.41
2023-02-09T13:26:38.972Z,49.20
2023-02-09T13:29:19.776Z,49.26
2023-02-09T13:31:58.826Z,49.77
2023-02-09T13:34:35.100Z,50.43
2023-02-09T13:37:16.235Z,50.65
2023-02-09T13:39:44.842Z,50.91
2023-02-09T13:42:19.256Z,51.02
2023-02-09T13:44:48.959Z,51.12
2023-02-09T13:47:18.506Z,51.26
2023-02-09T13:49:57.102Z,51.53
2023-02-09T13:52:26.763Z,51.98
2023-02-09T13:54:55.349Z,51.99
2023-02-09T13:57:33.121Z,52.01
2023-02-09T14:00:09.469Z,52.70
2023-02-09T14:02:39.509Z,53.04
2023-02-09T14:05:09.222Z,52.67
2023-02-09T14:07:38.950Z,52.43
2023-02-09T14:10:13.629Z,51.78
2023-02-09T14:12:56.692Z,51.47
2023-02-09T14:15:48.302Z,50.52
2023-02-09T14:18:40.733Z,50.56
2023-02-09T14:21:37.552Z,49.68
2023-02-09T14:24:27.339Z,49.37
2023-02-09T14:26:59.361Z,49.49
2023-02-09T14:29:29.029Z,49.42
2023-02-09T14:31:59.453Z,49.79
2023-02-09T14:34:35.225Z,50.07
2023-02-09T14:37:05.802Z,50.82
2023-02-09T14:39:33.579Z,51.48
2023-02-09T14:42:18.206Z,51.97
2023-02-09T14:44:47.474Z,52.12
2023-02-09T14:47:29.858Z,52.01
2023-02-09T14:49:59.575Z,52.70
2023-02-09T14:52:28.981Z,52.41
2023-02-09T14:54:59.239Z,53.17
2023-02-09T14:57:30.567Z,53.13
2023-02-09T14:59:58.286Z,53.11
2023-02-09T15:02:28.674Z,52.19
2023-02-09T15:04:56.553Z,52.05
2023-02-09T15:07:32.457Z,51.62
2023-02-09T15:10:00.207Z,50.90
2023-02-09T15:12:30.126Z,50.42
2023-02-09T15:15:00.321Z,50.48
2023-02-09T15:17:31.121Z,50.27
2023-02-09T15:19:59.732Z,51.14
2023-02-09T15:22:29.011Z,51.04
2023-02-09T15:24:57.631Z,51.52
2023-02-09T15:27:28.071Z,51.74
2023-02-09T15:29:59.716Z,52.74
2023-02-09T15:32:28.841Z,52.56
2023-02-09T15:34:56.604Z,53.03
2023-02-09T15:37:27.405Z,53.23
2023-02-09T15:39:59.547Z,53.04
2023-02-09T15:42:50.282Z,53.84
2023-02-09T15:45:37.774Z,53.64
2023-02-09T15:48:06.170Z,53.65
2023-02-09T15:50:35.655Z,53.65
2023-02-09T15:53:05.685Z,54.07
2023-02-09T15:55:36.834Z,54.22
2023-02-09T15:58:12.451Z,54.37
2023-02-09T16:00:40.289Z,54.64
2023-02-09T16:03:15.210Z,54.81
2023-02-09T16:05:43.051Z,54.52
2023-02-09T16:08:18.543Z,54.73
2023-02-09T16:10:48.388Z,55.52
2023-02-09T16:13:17.327Z,54.96
2023-02-09T16:15:45.657Z,54.99
2023-02-09T16:18:13.398Z,54.99
2023-02-09T16:20:47.011Z,55.15
2023-02-09T16:23:20.873Z,55.16
2023-02-09T16:25:51.707Z,54.75
2023-02-09T16:28:19.870Z,55.24
2023-02-09T16:30:50.070Z,54.71
2023-02-09T16:33:18.367Z,55.13
2023-02-09T16:35:50.119Z,55.40
2023-02-09T16:38:19.294Z,55.26
2023-02-09T16:40:47.653Z,55.55
2023-02-09T16:43:17.136Z,55.37
2023-02-09T16:46:01.147Z,55.42
2023-02-09T16:48:34.395Z,55.35
2023-02-09T16:51:02.252Z,55.30
2023-02-09T16:53:33.861Z,55.37
2023-02-09T16:56:03.844Z,55.42
2023-02-09T16:58:33.785Z,55.62
2023-02-09T17:01:01.664Z,55.71
2023-02-09T17:03:33.796Z,55.93
2023-02-09T17:06:02.503Z,55.55
2023-02-09T17:08:34.580Z,55.23
2023-02-09T17:11:04.074Z,54.19
2023-02-09T17:13:33.212Z,54.07
2023-02-09T17:16:02.837Z,53.12
2023-02-09T17:18:33.687Z,52.71
2023-02-09T17:21:03.700Z,52.21
2023-02-09T17:23:32.067Z,52.38
2023-02-09T17:26:00.557Z,51.86
2023-02-09T17:28:28.986Z,52.55
2023-02-09T17:31:00.677Z,53.18
2023-02-09T17:33:30.658Z,54.12
2023-02-09T17:38:47.205Z,54.01
2023-02-09T17:41:17.674Z,54.40
2023-02-09T17:43:45.408Z,54.51
2023-02-09T17:46:16.419Z,54.46
2023-02-09T17:48:45.316Z,55.23
2023-02-09T17:51:20.776Z,54.80
2023-02-09T17:53:48.869Z,55.88
2023-02-09T17:56:16.972Z,55.27
2023-02-09T17:58:45.245Z,55.10
2023-02-09T18:01:26.169Z,55.71
2023-02-09T18:03:54.775Z,55.20
2023-02-09T18:06:25.987Z,55.36
2023-02-09T18:08:53.711Z,54.17
2023-02-09T18:11:21.468Z,53.85
2023-02-09T18:13:49.194Z,53.04
2023-02-09T18:16:16.945Z,53.18
2023-02-09T18:18:47.138Z,52.78
2023-02-09T18:21:15.508Z,52.64
2023-02-09T18:23:43.336Z,52.21
2023-02-09T18:26:11.120Z,52.30
2023-02-09T18:28:38.822Z,52.60
2023-02-09T18:31:07.234Z,52.90
2023-02-09T18:33:34.969Z,53.38
2023-02-09T18:36:04.095Z,53.81
2023-02-09T18:38:31.810Z,54.21
2023-02-09T18:40:59.520Z,54.72
2023-02-09T18:43:27.489Z,54.84
2023-02-09T18:45:55.270Z,54.71
2023-02-09T18:48:23.021Z,55.12
2023-02-09T18:50:50.757Z,54.83
2023-02-09T18:53:22.135Z,55.59
2023-02-09T18:55:52.032Z,55.16
2023-02-09T18:58:20.097Z,55.43
2023-02-09T19:00:47.792Z,55.62
2023-02-09T19:03:17.706Z,55.41
2023-02-09T19:05:45.799Z,55.98
2023-02-09T19:08:13.980Z,55.52
2023-02-09T19:10:44.228Z,55.69
2023-02-09T19:13:12.197Z,55.61
2023-02-09T19:15:40.926Z,56.18
2023-02-09T19:18:08.754Z,55.99
2023-02-09T19:20:36.975Z,55.90
2023-02-09T19:23:06.714Z,56.13
2023-02-09T19:25:34.688Z,56.61
2023-02-09T19:28:03.802Z,55.99
2023-02-09T19:30:31.862Z,56.16
2023-02-09T19:33:00.151Z,55.38
2023-02-09T19:35:29.289Z,55.23
2023-02-09T19:37:58.285Z,54.91
2023-02-09T19:40:36.189Z,55.67
2023-02-09T19:43:05.976Z,55.78
2023-02-09T19:45:37.522Z,56.08
2023-02-09T19:48:06.585Z,55.66
2023-02-09T19:50:34.399Z,55.95
2023-02-09T19:53:02.902Z,56.17
2023-02-09T19:55:30.875Z,56.10
2023-02-09T19:57:59.161Z,56.25
2023-02-09T20:00:28.556Z,56.45
2023-02-09T20:02:56.276Z,56.42
2023-02-09T20:05:24.086Z,56.75
2023-02-09T20:07:53.660Z,56.59
2023-02-09T20:10:23.905Z,57.01
2023-02-09T20:12:52.084Z,56.86
2023-02-09T20:15:19.859Z,56.47
2023-02-09T20:17:48.995Z,56.75
2023-02-09T20:20:17.047Z,56.83
2023-02-09T20:22:44.788Z,57.13
2023-02-09T20:25:14.331Z,57.01
2023-02-09T20:27:42.080Z,57.01
2023-02-09T20:30:11.073Z,57.17
2023-02-09T20:32:39.128Z,57.17
2023-02-09T20:35:08.726Z,57.58
2023-02-09T20:37:36.485Z,57.21
2023-02-09T20:40:05.216Z,57.77
2023-02-09T20:42:50.507Z,57.23
2023-02-09T20:45:35.992Z,57.56
2023-02-09T20:48:05.492Z,58.16
2023-02-09T20:50:37.325Z,57.47
2023-02-09T20:53:05.153Z,57.86
2023-02-09T20:55:32.921Z,57.51
2023-02-09T20:58:00.669Z,57.83
2023-02-09T21:00:28.447Z,58.05
2023-02-09T21:02:56.208Z,58.38
2023-02-09T21:05:24.027Z,57.79
2023-02-09T21:07:53.226Z,57.84
2023-02-09T21:10:20.919Z,58.26
2023-02-09T21:12:49.058Z,58.32
2023-02-09T21:15:17.113Z,58.31
2023-02-09T21:17:47.891Z,57.83
2023-02-09T21:20:16.362Z,58.09
2023-02-09T21:22:44.443Z,58.13
2023-02-09T21:25:14.040Z,57.84
2023-02-09T21:27:41.790Z,58.46
2023-02-09T21:30:10.406Z,58.45
2023-02-09T21:32:38.431Z,58.24
2023-02-09T21:35:10.113Z,58.38
2023-02-09T21:37:38.976Z,58.44
2023-02-09T21:40:07.823Z,58.25
2023-02-09T21:42:37.042Z,58.54
2023-02-09T21:45:06.360Z,58.56
2023-02-09T21:47:37.936Z,58.46
2023-02-09T21:50:07.201Z,58.10
2023-02-09T21:52:35.406Z,58.46
2023-02-09T21:55:03.262Z,58.37
2023-02-09T21:57:31.006Z,58.28
2023-02-09T22:00:04.519Z,58.66
2023-02-09T22:02:32.528Z,58.49
2023-02-09T22:05:00.264Z,58.68
2023-02-09T22:07:28.741Z,58.66
2023-02-09T22:09:56.687Z,58.36
2023-02-09T22:12:24.434Z,58.51
2023-02-09T22:14:52.213Z,58.43
2023-02-09T22:17:21.370Z,58.42
2023-02-09T22:19:49.075Z,58.46
2023-02-09T22:22:16.805Z,58.42
2023-02-09T22:24:44.500Z,58.45
2023-02-09T22:27:12.245Z,58.46
2023-02-09T22:29:40.023Z,58.71
2023-02-09T22:32:07.746Z,58.51
2023-02-09T22:34:37.038Z,58.52
2023-02-09T22:37:04.744Z,58.27
2023-02-09T22:39:32.668Z,58.40
2023-02-09T22:42:00.997Z,58.48
2023-02-09T22:44:30.097Z,58.55
2023-02-09T22:46:58.053Z,58.46
2023-02-09T22:49:25.783Z,58.35
2023-02-09T22:51:54.879Z,58.44
2023-02-09T22:54:22.661Z,58.47
2023-02-09T22:56:50.525Z,58.73
2023-02-09T22:59:18.302Z,58.32
2023-02-09T23:01:46.156Z,58.73
2023-02-09T23:04:14.016Z,58.42
2023-02-09T23:06:41.737Z,58.83
2023-02-09T23:09:12.946Z,58.52
2023-02-09T23:11:40.794Z,58.31
2023-02-09T23:14:10.487Z,58.25
2023-02-09T23:16:39.405Z,58.87
2023-02-09T23:19:08.691Z,58.55
2023-02-09T23:21:39.138Z,58.57
2023-02-09T23:24:07.511Z,58.33
2023-02-09T23:26:37.252Z,58.55
2023-02-09T23:29:08.800Z,58.49
2023-02-09T23:31:37.092Z,58.37
2023-02-09T23:34:05.515Z,58.65
2023-02-09T23:36:34.901Z,58.30
2023-02-09T23:39:05.403Z,58.30
2023-02-09T23:41:33.867Z,58.13
2023-02-09T23:44:03.505Z,58.46
2023-02-09T23:46:31.289Z,58.51
2023-02-09T23:48:59.205Z,58.18
2023-02-09T23:51:29.689Z,58.36
2023-02-09T23:53:58.887Z,58.26
2023-02-09T23:56:28.031Z,57.97
2023-02-09T23:58:55.968Z,58.28
